Time;durP1;ratioP1;P1;durP2;ratioP2;P2;SDS_P1;SDS_P2;PMS_P1;PMS_P2;Temp;Humidity;BMP_temperature;BMP_pressure;BME280_temperature;BME280_humidity;BME280_pressure;Samples;Min_cycle;Max_cycle;Signal;HPM_P1;HPM_P2
2024/04/17 00:00:13;;;;;;;1.75;1.50;;;6.30;99.90;;;;;;5466232;26;20607;-75
2024/04/17 00:02:41;;;;;;;3.08;1.20;;;6.30;99.90;;;;;;5475419;26;20252;-75
2024/04/17 00:05:08;;;;;;;2.15;0.90;;;6.30;99.90;;;;;;5461065;26;20259;-75
2024/04/17 00:07:36;;;;;;;1.15;1.05;;;6.10;99.90;;;;;;5462893;26;20293;-75
2024/04/17 00:10:03;;;;;;;2.20;0.77;;;6.10;99.90;;;;;;5467109;26;20269;-75
2024/04/17 00:12:31;;;;;;;1.00;0.85;;;5.90;99.90;;;;;;5461898;26;20607;-75
2024/04/17 00:14:58;;;;;;;1.00;0.90;;;5.80;99.90;;;;;;5474316;26;20246;-75
2024/04/17 00:17:29;;;;;;;2.22;1.00;;;5.70;99.90;;;;;;5459816;26;20748;-75
2024/04/17 00:19:55;;;;;;;0.70;0.70;;;5.60;99.90;;;;;;5460851;26;20250;-75
2024/04/17 00:22:24;;;;;;;0.80;0.73;;;5.60;99.90;;;;;;5471995;26;20276;-75
2024/04/17 00:24:50;;;;;;;1.35;0.70;;;5.60;99.90;;;;;;5462479;26;20272;-75
2024/04/17 00:27:19;;;;;;;1.00;0.90;;;5.70;99.90;;;;;;5470285;26;20334;-76
2024/04/17 00:29:45;;;;;;;1.00;0.90;;;5.60;99.90;;;;;;5472799;26;20284;-75
2024/04/17 00:32:14;;;;;;;1.58;1.00;;;5.60;99.90;;;;;;5469704;26;20292;-75
2024/04/17 00:34:43;;;;;;;1.10;1.00;;;5.50;99.90;;;;;;5464386;26;20245;-76
2024/04/17 00:37:12;;;;;;;1.27;1.17;;;5.60;99.90;;;;;;5461817;26;20281;-75
2024/04/17 00:39:38;;;;;;;1.30;0.80;;;5.50;99.90;;;;;;5468933;26;20254;-75
2024/04/17 00:42:07;;;;;;;1.10;1.00;;;5.60;99.90;;;;;;5478266;26;20242;-76
2024/04/17 00:44:33;;;;;;;0.70;0.60;;;5.60;99.90;;;;;;5462058;26;20264;-76
2024/04/17 00:47:03;;;;;;;0.95;0.90;;;5.60;99.90;;;;;;5473103;26;20249;-76
2024/04/17 00:49:29;;;;;;;0.90;0.80;;;5.70;99.90;;;;;;5473633;26;20334;-76
2024/04/17 00:52:01;;;;;;;1.08;0.82;;;5.60;99.90;;;;;;5465363;26;20291;-76
2024/04/17 00:54:27;;;;;;;5.18;1.20;;;5.70;99.90;;;;;;5457078;26;20246;-76
2024/04/17 00:56:58;;;;;;;0.80;0.80;;;5.60;99.90;;;;;;5467463;26;20251;-76
2024/04/17 00:59:24;;;;;;;1.27;1.17;;;5.70;99.90;;;;;;5458362;26;20250;-76
2024/04/17 01:01:53;;;;;;;1.38;0.90;;;5.70;99.90;;;;;;5464882;26;20246;-76
2024/04/17 01:04:19;;;;;;;1.20;0.88;;;5.70;99.90;;;;;;5468377;26;20268;-76
2024/04/17 01:06:49;;;;;;;1.38;1.20;;;5.80;99.90;;;;;;5467442;26;20257;-76
2024/04/17 01:09:18;;;;;;;1.10;1.00;;;5.80;99.90;;;;;;5468974;26;20333;-76
2024/04/17 01:11:47;;;;;;;1.08;0.93;;;5.70;99.90;;;;;;5470945;26;20313;-76
2024/04/17 01:14:15;;;;;;;1.00;0.90;;;5.70;99.90;;;;;;5463453;26;20317;-76
2024/04/17 01:16:44;;;;;;;1.58;1.48;;;5.70;99.90;;;;;;5461235;26;20238;-76
2024/04/17 01:19:11;;;;;;;1.60;1.50;;;5.80;99.90;;;;;;5440950;26;20281;-75
2024/04/17 01:21:41;;;;;;;1.63;1.40;;;5.80;99.90;;;;;;5464331;26;20250;-76
2024/04/17 01:24:10;;;;;;;1.45;1.30;;;5.80;99.90;;;;;;5460234;26;20273;-75
2024/04/17 01:26:40;;;;;;;1.67;1.58;;;5.80;99.90;;;;;;5465386;26;20322;-76
2024/04/17 01:29:07;;;;;;;1.85;1.65;;;5.80;99.90;;;;;;5459076;26;20243;-77
2024/04/17 01:31:37;;;;;;;2.20;2.00;;;5.80;99.90;;;;;;5466658;26;20265;-76
2024/04/17 01:34:05;;;;;;;1.58;1.40;;;5.60;99.90;;;;;;5471823;26;20616;-75
2024/04/17 01:36:34;;;;;;;2.30;1.30;;;5.60;99.90;;;;;;5472346;26;20712;-76
2024/04/17 01:39:00;;;;;;;2.08;1.80;;;5.50;99.90;;;;;;5465605;26;20247;-76
2024/04/17 01:41:32;;;;;;;1.95;1.60;;;5.50;99.90;;;;;;5463609;26;20783;-76
2024/04/17 01:43:58;;;;;;;1.95;1.63;;;5.50;99.90;;;;;;5461178;26;20246;-76
2024/04/17 01:46:27;;;;;;;1.40;1.30;;;5.50;99.90;;;;;;5468505;26;20234;-75
2024/04/17 01:48:53;;;;;;;2.58;1.33;;;5.50;99.90;;;;;;5466876;26;20241;-75
2024/04/17 01:51:22;;;;;;;1.90;1.80;;;5.50;99.90;;;;;;5455537;26;20243;-76
2024/04/17 01:53:50;;;;;;;3.03;2.83;;;5.50;99.90;;;;;;5462178;26;20273;-76
2024/04/17 01:56:19;;;;;;;4.57;4.18;;;5.60;99.90;;;;;;5475984;26;20633;-75
2024/04/17 01:58:49;;;;;;;2.10;2.00;;;5.60;99.90;;;;;;5454379;26;20339;-75
2024/04/17 02:01:19;;;;;;;1.42;1.33;;;5.60;99.90;;;;;;5466110;26;20246;-76
2024/04/17 02:03:48;;;;;;;1.15;1.05;;;5.60;99.90;;;;;;5474735;26;20292;-77
2024/04/17 02:06:19;;;;;;;2.00;1.73;;;5.60;99.90;;;;;;5461664;26;20276;-75
2024/04/17 02:08:46;;;;;;;1.90;1.10;;;5.60;99.90;;;;;;5466605;26;20300;-76
2024/04/17 02:11:16;;;;;;;1.30;1.20;;;5.60;99.90;;;;;;5477264;26;20343;-76
2024/04/17 02:13:44;;;;;;;1.35;1.25;;;5.60;99.90;;;;;;5467628;26;20237;-76
2024/04/17 02:16:16;;;;;;;2.20;2.00;;;5.60;99.90;;;;;;5472810;26;20276;-75
2024/04/17 02:18:43;;;;;;;2.72;2.45;;;5.60;99.90;;;;;;5456721;26;20443;-76
2024/04/17 02:21:14;;;;;;;2.38;2.13;;;5.60;99.90;;;;;;5468889;26;21096;-76
2024/04/17 02:23:41;;;;;;;3.83;2.50;;;5.50;99.90;;;;;;5473189;26;20326;-75
2024/04/17 02:26:10;;;;;;;1.92;1.83;;;5.50;99.90;;;;;;5470335;26;20290;-75
2024/04/17 02:28:38;;;;;;;1.52;1.42;;;5.50;99.90;;;;;;5459116;26;20289;-76
2024/04/17 02:31:07;;;;;;;1.65;1.45;;;5.60;99.90;;;;;;5466120;26;20281;-76
2024/04/17 02:33:38;;;;;;;2.00;1.80;;;5.60;99.90;;;;;;5467257;26;20253;-76
2024/04/17 02:36:08;;;;;;;2.70;2.30;;;5.60;99.90;;;;;;5469908;26;20251;-75
2024/04/17 02:38:36;;;;;;;1.73;1.63;;;5.60;99.90;;;;;;5469477;26;20246;-76
2024/04/17 02:41:06;;;;;;;2.08;1.88;;;5.60;99.90;;;;;;5458017;26;20778;-76
2024/04/17 02:43:34;;;;;;;6.72;4.70;;;5.50;99.90;;;;;;5464904;26;20634;-76
2024/04/17 02:46:05;;;;;;;3.92;3.00;;;5.50;99.90;;;;;;5472633;26;20245;-75
2024/04/17 02:48:32;;;;;;;1.90;1.80;;;5.70;99.90;;;;;;5461786;26;20239;-76
2024/04/17 02:51:05;;;;;;;3.10;2.42;;;5.60;99.90;;;;;;5468327;26;20243;-76
2024/04/17 02:53:31;;;;;;;3.85;2.90;;;5.60;99.90;;;;;;5469665;26;20591;-76
2024/04/17 02:56:00;;;;;;;2.05;1.85;;;5.50;99.90;;;;;;5467949;26;20766;-75
2024/04/17 02:58:27;;;;;;;1.70;1.60;;;5.50;99.90;;;;;;5463528;26;20246;-76
2024/04/17 03:00:57;;;;;;;1.42;1.33;;;5.50;99.90;;;;;;5458709;26;20235;-76
2024/04/17 03:03:23;;;;;;;1.20;1.02;;;5.50;99.90;;;;;;5461947;26;20629;-76
2024/04/17 03:05:52;;;;;;;1.65;1.55;;;5.50;99.90;;;;;;5469764;26;20285;-76
2024/04/17 03:08:20;;;;;;;1.90;1.33;;;5.60;99.90;;;;;;5465445;26;20275;-76
2024/04/17 03:10:49;;;;;;;1.25;1.15;;;5.50;99.90;;;;;;5476797;26;20690;-76
2024/04/17 03:13:15;;;;;;;1.45;1.20;;;5.40;99.90;;;;;;5463388;26;20336;-76
2024/04/17 03:15:44;;;;;;;1.60;1.30;;;5.30;99.90;;;;;;5472654;26;20711;-76
2024/04/17 03:18:10;;;;;;;1.20;1.10;;;5.30;99.90;;;;;;5468478;26;20309;-76
2024/04/17 03:20:39;;;;;;;1.42;1.33;;;5.30;99.90;;;;;;5464922;26;20242;-77
2024/04/17 03:23:05;;;;;;;1.90;1.58;;;5.30;99.90;;;;;;5464698;26;20279;-77
2024/04/17 03:25:37;;;;;;;1.40;1.30;;;5.30;99.90;;;;;;5470840;26;20773;-76
2024/04/17 03:28:03;;;;;;;3.28;2.25;;;5.20;99.90;;;;;;5468086;26;20264;-76
2024/04/17 03:30:33;;;;;;;1.75;1.65;;;5.20;99.90;;;;;;5468351;26;20237;-77
2024/04/17 03:33:00;;;;;;;1.50;1.40;;;5.30;99.90;;;;;;5464709;26;20244;-76
2024/04/17 03:35:28;;;;;;;1.65;1.17;;;5.20;99.90;;;;;;5468765;26;20264;-77
2024/04/17 03:37:57;;;;;;;2.45;1.92;;;5.10;99.90;;;;;;5467271;26;20243;-76
2024/04/17 03:40:26;;;;;;;1.05;0.90;;;5.10;99.90;;;;;;5472514;26;20248;-76
2024/04/17 03:42:58;;;;;;;1.00;1.00;;;5.10;99.90;;;;;;5470520;26;20268;-76
2024/04/17 03:45:26;;;;;;;1.15;1.05;;;5.10;99.90;;;;;;5470102;26;20264;-76
2024/04/17 03:47:55;;;;;;;1.65;1.23;;;5.20;99.90;;;;;;5463984;26;20245;-76
2024/04/17 03:50:21;;;;;;;1.92;1.00;;;5.20;99.90;;;;;;5462588;26;20253;-76
2024/04/17 03:52:50;;;;;;;1.83;1.67;;;5.30;99.90;;;;;;5464960;26;20725;-77
2024/04/17 03:55:17;;;;;;;2.20;1.83;;;5.30;99.90;;;;;;5456047;26;20685;-77
2024/04/17 03:57:45;;;;;;;1.90;1.73;;;5.50;99.90;;;;;;5466406;26;20239;-76
2024/04/17 04:00:16;;;;;;;2.20;1.90;;;5.40;99.90;;;;;;5475526;26;20246;-76
2024/04/17 04:02:45;;;;;;;3.80;2.65;;;5.50;99.90;;;;;;5468390;26;20263;-76
2024/04/17 04:05:11;;;;;;;3.25;2.15;;;5.50;99.90;;;;;;5469772;26;20570;-76
2024/04/17 04:07:40;;;;;;;2.60;2.40;;;5.30;99.90;;;;;;5464393;26;20578;-76
2024/04/17 04:10:06;;;;;;;2.85;2.50;;;5.20;99.90;;;;;;5459382;26;20576;-76
2024/04/17 04:12:35;;;;;;;3.55;2.92;;;5.10;99.90;;;;;;5463994;26;20755;-76
2024/04/17 04:15:04;;;;;;;2.90;2.47;;;5.20;99.90;;;;;;5439648;26;20281;-76
2024/04/17 04:17:36;;;;;;;4.32;2.95;;;5.20;99.90;;;;;;5469832;26;20268;-76
2024/04/17 04:20:05;;;;;;;3.25;2.55;;;5.20;99.90;;;;;;5462030;26;20247;-76
2024/04/17 04:22:35;;;;;;;3.95;3.10;;;5.20;99.90;;;;;;5468381;26;20713;-76
2024/04/17 04:25:02;;;;;;;5.80;3.50;;;5.30;99.90;;;;;;5469554;26;20762;-76
2024/04/17 04:27:33;;;;;;;3.65;3.05;;;5.30;99.90;;;;;;5462326;26;20289;-76
2024/04/17 04:29:59;;;;;;;3.90;3.08;;;5.30;99.90;;;;;;5467103;26;20747;-76
2024/04/17 04:32:28;;;;;;;4.03;3.63;;;5.30;99.90;;;;;;5466616;26;20246;-76
2024/04/17 04:34:57;;;;;;;5.88;3.38;;;5.30;99.90;;;;;;5447298;26;20288;-76
2024/04/17 04:37:26;;;;;;;4.88;3.70;;;5.30;99.90;;;;;;5470745;26;20243;-76
2024/04/17 04:39:52;;;;;;;4.72;3.65;;;5.40;99.90;;;;;;5480430;26;20245;-77
2024/04/17 04:42:21;;;;;;;3.60;3.03;;;5.30;99.90;;;;;;5462582;26;20291;-76
2024/04/17 04:44:48;;;;;;;3.40;2.95;;;5.30;99.90;;;;;;5472515;26;20288;-76
2024/04/17 04:47:17;;;;;;;4.45;3.45;;;5.30;99.90;;;;;;5474517;26;20574;-76
2024/04/17 04:49:45;;;;;;;3.58;2.78;;;5.20;99.90;;;;;;5465317;26;20246;-76
2024/04/17 04:52:16;;;;;;;4.55;4.15;;;5.10;99.90;;;;;;5472150;26;20342;-76
2024/04/17 04:54:42;;;;;;;3.97;3.58;;;5.00;99.90;;;;;;5473009;26;20277;-76
2024/04/17 04:57:11;;;;;;;6.13;3.30;;;5.00;99.90;;;;;;5476274;26;20622;-76
2024/04/17 04:59:37;;;;;;;5.50;5.00;;;5.00;99.90;;;;;;5477340;26;20707;-75
2024/04/17 05:02:06;;;;;;;5.45;4.30;;;5.00;99.90;;;;;;5482503;26;20242;-76
2024/04/17 05:04:33;;;;;;;3.05;2.75;;;5.00;99.90;;;;;;5477918;26;20287;-75
2024/04/17 05:07:02;;;;;;;3.35;2.65;;;5.00;99.90;;;;;;5481508;26;20334;-76
2024/04/17 05:09:30;;;;;;;2.58;1.92;;;5.10;99.90;;;;;;5483709;26;20277;-76
2024/04/17 05:11:59;;;;;;;2.63;2.13;;;5.00;99.90;;;;;;5482343;26;20241;-75
2024/04/17 05:14:25;;;;;;;2.80;2.60;;;5.00;99.90;;;;;;5467729;26;20719;-76
2024/04/17 05:16:54;;;;;;;2.88;2.50;;;5.00;99.90;;;;;;5453586;26;20250;-76
2024/04/17 05:19:20;;;;;;;3.15;2.85;;;5.00;99.90;;;;;;5463264;26;20253;-75
2024/04/17 05:21:49;;;;;;;3.28;2.97;;;5.00;99.90;;;;;;5482892;26;20237;-76
2024/04/17 05:24:15;;;;;;;3.45;2.50;;;5.10;99.90;;;;;;5472015;26;20245;-75
2024/04/17 05:26:47;;;;;;;2.50;2.30;;;5.10;99.90;;;;;;5464052;26;20250;-76
2024/04/17 05:29:13;;;;;;;2.95;2.67;;;5.20;99.90;;;;;;5472358;26;20245;-76
2024/04/17 05:31:44;;;;;;;4.53;3.25;;;5.20;99.90;;;;;;5473941;26;20241;-75
2024/04/17 05:34:10;;;;;;;4.07;2.90;;;5.20;99.90;;;;;;5471569;26;20260;-74
2024/04/17 05:36:39;;;;;;;3.22;2.92;;;5.20;99.90;;;;;;5476512;26;20241;-77
2024/04/17 05:39:05;;;;;;;3.25;2.95;;;5.30;99.90;;;;;;5474857;26;20285;-74
2024/04/17 05:41:34;;;;;;;4.47;3.05;;;5.30;99.90;;;;;;5473307;26;20241;-75
2024/04/17 05:44:03;;;;;;;3.38;3.05;;;5.20;99.90;;;;;;5479796;26;20257;-75
2024/04/17 05:46:32;;;;;;;3.78;3.00;;;5.20;99.90;;;;;;5472787;26;20233;-76
2024/04/17 05:48:58;;;;;;;4.40;3.40;;;5.30;99.90;;;;;;5479356;26;20367;-75
2024/04/17 05:51:27;;;;;;;4.20;3.83;;;5.40;99.90;;;;;;5486062;26;20276;-75
2024/04/17 05:53:54;;;;;;;5.05;3.75;;;5.40;99.90;;;;;;5465426;26;20243;-74
2024/04/17 05:56:23;;;;;;;4.38;3.97;;;5.40;99.90;;;;;;5456415;26;20290;-75
2024/04/17 05:58:49;;;;;;;3.40;3.10;;;5.40;99.90;;;;;;5453340;26;20253;-75
2024/04/17 06:01:20;;;;;;;6.28;5.00;;;5.50;99.90;;;;;;5469454;26;20302;-73
2024/04/17 06:03:46;;;;;;;3.85;3.55;;;5.50;99.90;;;;;;5469198;26;20295;-73
2024/04/17 06:06:15;;;;;;;8.25;7.05;;;5.60;99.90;;;;;;5466667;26;20250;-73
2024/04/17 06:08:42;;;;;;;7.18;5.63;;;5.50;99.90;;;;;;5463979;26;20297;-74
2024/04/17 06:11:13;;;;;;;7.25;4.40;;;5.50;99.90;;;;;;5475876;26;20251;-73
2024/04/17 06:13:40;;;;;;;6.20;5.53;;;5.50;99.90;;;;;;5481481;26;20255;-74
2024/04/17 06:16:09;;;;;;;5.97;5.25;;;5.60;99.90;;;;;;5478294;26;20744;-73
2024/04/17 06:18:38;;;;;;;5.10;4.47;;;5.60;99.90;;;;;;5470292;26;20721;-74
2024/04/17 06:21:07;;;;;;;7.82;5.70;;;5.60;99.90;;;;;;5483661;26;20231;-73
2024/04/17 06:23:34;;;;;;;7.35;4.72;;;5.50;99.90;;;;;;5481430;26;20251;-73
2024/04/17 06:26:03;;;;;;;7.22;4.88;;;5.60;99.90;;;;;;5484557;26;20297;-73
2024/04/17 06:28:29;;;;;;;5.93;5.00;;;5.40;99.90;;;;;;5471671;26;20269;-74
2024/04/17 06:30:58;;;;;;;7.53;5.93;;;5.50;99.90;;;;;;5480429;26;20415;-73
2024/04/17 06:33:24;;;;;;;7.18;5.07;;;5.60;99.90;;;;;;5480979;26;20259;-73
2024/04/17 06:35:55;;;;;;;7.13;5.53;;;5.60;99.90;;;;;;5474054;26;20291;-73
2024/04/17 06:38:21;;;;;;;7.45;5.70;;;5.70;99.90;;;;;;5484347;26;20289;-73
2024/04/17 06:40:50;;;;;;;7.35;5.88;;;5.70;99.90;;;;;;5478114;26;20281;-73
2024/04/17 06:43:16;;;;;;;5.50;4.80;;;5.80;99.90;;;;;;5474984;26;20271;-72
2024/04/17 06:45:48;;;;;;;7.68;4.60;;;5.70;99.90;;;;;;5468209;26;20242;-74
2024/04/17 06:48:14;;;;;;;5.43;4.60;;;5.80;99.90;;;;;;5477949;26;20244;-77
2024/04/17 06:50:43;;;;;;;6.90;5.32;;;5.80;99.90;;;;;;5483170;26;20282;-76
2024/04/17 06:53:12;;;;;;;7.20;5.00;;;5.80;99.90;;;;;;5458601;26;20270;-77
2024/04/17 06:55:41;;;;;;;4.85;4.40;;;5.60;99.90;;;;;;5465036;26;20261;-73
2024/04/17 06:58:07;;;;;;;6.63;4.60;;;5.60;99.90;;;;;;5475841;26;20621;-73
2024/04/17 07:00:38;;;;;;;5.70;5.10;;;5.70;99.90;;;;;;5480946;26;20306;-73
2024/04/17 07:03:04;;;;;;;4.90;4.43;;;5.70;99.90;;;;;;5471551;26;20671;-74
2024/04/17 07:05:33;;;;;;;6.50;4.57;;;5.80;99.90;;;;;;5480199;26;20755;-74
2024/04/17 07:07:59;;;;;;;8.13;4.50;;;5.70;99.90;;;;;;5476233;26;20562;-73
2024/04/17 07:10:31;;;;;;;5.53;4.30;;;5.70;99.90;;;;;;5483716;26;20568;-74
2024/04/17 07:12:58;;;;;;;6.00;4.03;;;5.80;99.90;;;;;;5470222;26;20287;-74
2024/04/17 07:15:26;;;;;;;6.60;4.45;;;5.90;99.90;;;;;;5457462;26;20254;-74
2024/04/17 07:17:52;;;;;;;6.55;5.10;;;5.80;99.90;;;;;;5471540;26;20252;-75
2024/04/17 07:20:21;;;;;;;5.25;4.00;;;5.80;99.90;;;;;;5455529;26;20290;-74
2024/04/17 07:22:48;;;;;;;5.03;4.53;;;5.90;99.90;;;;;;5468094;26;20240;-75
2024/04/17 07:25:17;;;;;;;4.25;3.85;;;5.80;99.90;;;;;;5467391;26;20247;-75
2024/04/17 07:27:46;;;;;;;4.35;3.95;;;5.80;99.90;;;;;;5482302;26;21001;-74
2024/04/17 07:30:15;;;;;;;4.88;4.30;;;5.80;99.90;;;;;;5467736;26;20283;-75
2024/04/17 07:32:41;;;;;;;5.25;3.90;;;5.70;99.90;;;;;;5476089;26;20281;-74
2024/04/17 07:35:10;;;;;;;4.30;3.45;;;5.80;99.90;;;;;;5465585;26;20236;-74
2024/04/17 07:37:37;;;;;;;5.53;3.08;;;5.60;99.90;;;;;;5454729;26;20252;-74
2024/04/17 07:40:06;;;;;;;4.93;3.58;;;5.50;99.90;;;;;;5473561;26;20629;-75
2024/04/17 07:42:32;;;;;;;3.35;2.85;;;5.40;99.90;;;;;;5477671;26;20273;-75
2024/04/17 07:45:04;;;;;;;3.15;2.17;;;5.50;99.90;;;;;;5476829;26;20240;-78
2024/04/17 07:47:30;;;;;;;3.40;2.70;;;5.50;99.90;;;;;;5464674;26;20246;-82
2024/04/17 07:49:59;;;;;;;3.00;2.75;;;5.50;99.90;;;;;;5451572;26;20298;-79
2024/04/17 07:52:25;;;;;;;3.30;2.60;;;5.50;99.90;;;;;;5459757;26;20240;-79
2024/04/17 07:54:54;;;;;;;3.50;2.85;;;5.50;99.90;;;;;;5480787;26;20631;-75
2024/04/17 07:57:23;;;;;;;4.40;3.40;;;5.50;99.90;;;;;;5473721;26;20259;-76
2024/04/17 07:59:49;;;;;;;3.45;2.65;;;5.50;99.90;;;;;;5476121;26;20246;-76
2024/04/17 08:02:20;;;;;;;3.60;2.72;;;5.50;99.90;;;;;;5473994;26;20716;-76
2024/04/17 08:04:47;;;;;;;8.30;3.70;;;5.60;99.90;;;;;;5464338;26;20775;-77
2024/04/17 08:07:16;;;;;;;4.40;2.85;;;5.60;99.90;;;;;;5481468;26;20243;-78
2024/04/17 08:09:42;;;;;;;3.25;2.92;;;5.50;99.90;;;;;;5480964;26;20254;-76
2024/04/17 08:12:11;;;;;;;5.13;3.80;;;5.60;99.90;;;;;;5480782;26;20281;-78
2024/04/17 08:14:37;;;;;;;5.03;4.10;;;5.60;99.90;;;;;;5479498;26;20819;-74
2024/04/17 08:17:06;;;;;;;5.78;4.22;;;5.50;99.90;;;;;;5460663;26;20253;-77
2024/04/17 08:19:36;;;;;;;6.53;4.50;;;5.50;99.90;;;;;;5457245;26;20247;-77
2024/04/17 08:22:05;;;;;;;5.03;4.30;;;5.70;99.90;;;;;;5472411;26;20239;-77
2024/04/17 08:24:31;;;;;;;8.10;5.90;;;5.70;99.90;;;;;;5467041;26;20269;-77
2024/04/17 08:27:00;;;;;;;5.28;4.22;;;5.80;99.90;;;;;;5461715;26;20279;-77
2024/04/17 08:29:26;;;;;;;4.38;3.92;;;5.80;99.90;;;;;;5458146;26;20246;-77
2024/04/17 08:31:55;;;;;;;4.80;4.25;;;5.90;99.90;;;;;;5452334;26;20232;-76
2024/04/17 08:34:21;;;;;;;5.38;4.88;;;5.90;99.90;;;;;;5471222;26;20243;-77
2024/04/17 08:36:53;;;;;;;5.72;5.03;;;6.00;99.90;;;;;;5473976;26;20287;-77
2024/04/17 08:39:19;;;;;;;6.82;5.10;;;6.10;99.90;;;;;;5471150;26;20751;-78
2024/04/17 08:41:51;;;;;;;5.78;4.80;;;6.30;99.90;;;;;;5471021;26;20246;-77
2024/04/17 08:44:27;;;;;;;7.32;5.32;;;6.60;99.90;;;;;;5483496;26;20243;-73
2024/04/17 08:46:58;;;;;;;7.97;5.72;;;6.80;99.90;;;;;;5474415;26;20308;-78
2024/04/17 08:49:26;;;;;;;7.72;5.85;;;7.00;99.90;;;;;;5461108;26;20244;-76
2024/04/17 08:51:59;;;;;;;9.07;6.13;;;7.10;99.90;;;;;;5472165;26;20343;-75
2024/04/17 08:54:26;;;;;;;6.32;5.18;;;7.20;99.90;;;;;;5468201;26;20243;-73
2024/04/17 08:56:58;;;;;;;5.80;5.13;;;7.30;99.90;;;;;;5472157;26;20277;-76
2024/04/17 08:59:24;;;;;;;7.35;5.47;;;7.40;99.90;;;;;;5478582;26;20254;-75
2024/04/17 09:01:53;;;;;;;5.90;4.80;;;7.30;99.90;;;;;;5474151;26;20270;-75
2024/04/17 09:04:19;;;;;;;6.10;5.22;;;7.10;99.90;;;;;;5472098;26;20243;-75
2024/04/17 09:07:05;;;;;;;6.57;5.88;;;7.30;99.90;;;;;;5499210;25;20747;-75
2024/04/17 09:09:52;;;;;;;7.15;5.30;;;7.30;99.90;;;;;;5469858;26;20741;-75
2024/04/17 09:12:44;;;;;;;5.88;5.28;;;7.10;99.90;;;;;;5477138;26;20231;-77
2024/04/17 09:15:13;;;;;;;5.28;4.45;;;7.00;99.90;;;;;;5465190;26;20368;-75
2024/04/17 09:18:01;;;;;;;5.68;5.05;;;6.90;99.90;;;;;;5485155;25;21498;-75
2024/04/17 09:20:47;;;;;;;5.05;4.53;;;6.60;99.90;;;;;;5495637;26;20242;-75
2024/04/17 09:23:36;;;;;;;12.00;6.05;;;6.40;99.90;;;;;;5495127;26;20241;-75
2024/04/17 09:26:15;;;;;;;6.00;4.40;;;6.40;99.90;;;;;;5455025;26;20244;-75
2024/04/17 09:28:53;;;;;;;5.60;4.60;;;6.30;99.90;;;;;;5465075;26;20242;-75
2024/04/17 09:31:32;;;;;;;4.97;4.47;;;6.10;99.90;;;;;;5466092;26;20558;-75
2024/04/17 09:34:22;;;;;;;4.88;4.47;;;6.00;99.90;;;;;;5466509;26;20246;-75
2024/04/17 09:36:48;;;;;;;8.65;4.13;;;5.90;99.90;;;;;;5486546;25;20291;-75
2024/04/17 09:39:17;;;;;;;6.18;4.93;;;6.00;99.90;;;;;;5493203;25;20317;-75
2024/04/17 09:41:45;;;;;;;6.07;3.60;;;6.00;99.90;;;;;;5471122;26;20294;-75
2024/04/17 09:44:14;;;;;;;5.30;4.80;;;6.10;99.90;;;;;;5465425;26;20234;-75
2024/04/17 09:46:44;;;;;;;5.65;5.05;;;6.10;99.90;;;;;;5478137;26;20750;-74
2024/04/17 09:49:19;;;;;;;5.90;4.85;;;5.90;99.90;;;;;;5456940;26;20239;-75
2024/04/17 09:51:54;;;;;;;6.82;5.60;;;5.90;99.90;;;;;;5463293;26;20250;-75
2024/04/17 09:54:24;;;;;;;6.20;5.60;;;5.90;99.90;;;;;;5456297;26;20556;-75
2024/04/17 09:56:51;;;;;;;12.82;5.78;;;5.90;99.90;;;;;;5466662;26;20301;-75
2024/04/17 09:59:23;;;;;;;8.00;7.15;;;6.00;99.90;;;;;;5469149;26;20239;-77
2024/04/17 10:01:51;;;;;;;8.05;7.22;;;6.10;99.90;;;;;;5468106;26;20243;-75
2024/04/17 10:04:20;;;;;;;12.93;7.28;;;6.10;99.90;;;;;;5475660;26;20318;-76
2024/04/17 10:06:49;;;;;;;7.65;6.55;;;6.10;99.90;;;;;;5476501;25;20606;-76
2024/04/17 10:09:18;;;;;;;8.60;6.65;;;6.10;99.90;;;;;;5480165;25;20340;-76
2024/04/17 10:11:50;;;;;;;7.60;6.90;;;6.20;99.90;;;;;;5483673;26;20308;-76
2024/04/17 10:14:20;;;;;;;10.73;7.22;;;6.30;99.90;;;;;;5469602;25;20290;-74
2024/04/17 10:16:46;;;;;;;9.65;8.40;;;6.40;99.90;;;;;;5463705;25;20728;-76
2024/04/17 10:19:15;;;;;;;7.03;6.32;;;6.30;99.90;;;;;;5471651;26;20246;-76
2024/04/17 10:21:42;;;;;;;10.73;6.90;;;6.40;99.90;;;;;;5464662;26;20815;-76
2024/04/17 10:24:15;;;;;;;9.50;7.63;;;6.40;99.90;;;;;;5464996;26;20258;-76
2024/04/17 10:26:43;;;;;;;7.00;6.00;;;6.60;99.90;;;;;;5479960;26;20247;-76
2024/04/17 10:29:17;;;;;;;7.97;7.20;;;6.50;99.90;;;;;;5471098;26;20266;-76
2024/04/17 10:31:57;;;;;;;10.85;6.57;;;6.60;99.90;;;;;;5461918;26;20345;-76
2024/04/17 10:34:26;;;;;;;7.72;6.95;;;6.80;99.90;;;;;;5461172;26;20271;-76
2024/04/17 10:36:53;;;;;;;6.93;5.80;;;6.70;99.90;;;;;;5451829;26;20283;-75
2024/04/17 10:39:28;;;;;;;6.65;5.93;;;6.80;99.90;;;;;;5476808;26;20236;-76
2024/04/17 10:41:54;;;;;;;7.78;6.78;;;6.80;99.90;;;;;;5457411;26;20270;-77
2024/04/17 10:44:23;;;;;;;8.57;6.47;;;6.90;99.90;;;;;;5447881;26;20557;-77
2024/04/17 10:47:00;;;;;;;8.73;7.32;;;7.10;99.90;;;;;;5461002;26;20266;-76
2024/04/17 10:49:29;;;;;;;12.93;7.55;;;7.40;99.90;;;;;;5444122;26;20265;-76
2024/04/17 10:51:56;;;;;;;8.88;8.02;;;7.60;99.90;;;;;;5477338;26;20243;-76
2024/04/17 10:54:27;;;;;;;8.18;7.38;;;7.50;99.90;;;;;;5448868;26;20291;-76
2024/04/17 10:56:56;;;;;;;6.75;5.95;;;7.50;99.90;;;;;;5479286;26;20243;-75
2024/04/17 10:59:29;;;;;;;9.63;6.80;;;7.50;99.90;;;;;;5459439;26;20235;-75
2024/04/17 11:01:55;;;;;;;7.47;6.70;;;7.50;99.90;;;;;;5472270;26;20247;-75
2024/04/17 11:04:26;;;;;;;10.85;7.75;;;7.40;99.90;;;;;;5460692;26;20263;-75
2024/04/17 11:06:53;;;;;;;7.80;7.07;;;7.40;99.90;;;;;;5461674;26;20288;-75
2024/04/17 11:09:23;;;;;;;8.90;8.05;;;7.40;99.90;;;;;;5431542;26;20296;-76
2024/04/17 11:11:52;;;;;;;14.23;7.40;;;7.30;99.90;;;;;;5423164;26;20766;-76
2024/04/17 11:14:26;;;;;;;6.45;5.65;;;7.20;99.90;;;;;;5439474;26;20275;-75
2024/04/17 11:16:54;;;;;;;8.45;7.55;;;7.20;99.90;;;;;;5423391;26;20249;-75
2024/04/17 11:19:23;;;;;;;9.82;7.30;;;7.00;99.90;;;;;;5424069;26;20583;-75
2024/04/17 11:21:50;;;;;;;10.52;6.95;;;7.10;99.90;;;;;;5415887;26;20272;-75
2024/04/17 11:24:22;;;;;;;9.27;7.30;;;7.40;99.90;;;;;;5412886;26;20330;-75
2024/04/17 11:26:49;;;;;;;7.85;6.07;;;8.00;99.90;;;;;;5412096;26;20296;-75
2024/04/17 11:29:22;;;;;;;7.40;6.43;;;8.20;99.90;;;;;;5438139;26;20240;-75
2024/04/17 11:31:48;;;;;;;7.43;6.53;;;8.40;99.90;;;;;;5442238;26;20597;-76
2024/04/17 11:34:21;;;;;;;12.10;5.90;;;8.60;99.90;;;;;;5413152;26;20730;-76
2024/04/17 11:36:48;;;;;;;6.33;5.70;;;9.00;99.90;;;;;;5414869;26;20630;-75
2024/04/17 11:39:18;;;;;;;5.90;5.13;;;8.80;99.90;;;;;;5439484;26;20556;-77
2024/04/17 11:41:48;;;;;;;4.77;4.27;;;8.40;99.60;;;;;;5415098;26;20552;-76
2024/04/17 11:44:20;;;;;;;8.40;4.70;;;8.10;99.90;;;;;;5438512;26;21181;-75
2024/04/17 11:46:47;;;;;;;6.43;5.17;;;7.80;99.90;;;;;;5431149;26;20563;-76
2024/04/17 11:49:15;;;;;;;6.07;4.57;;;7.60;99.90;;;;;;5422184;26;20555;-75
2024/04/17 11:51:42;;;;;;;5.50;5.00;;;7.50;99.90;;;;;;5410683;26;20615;-75
2024/04/17 11:54:10;;;;;;;7.32;5.63;;;7.50;99.90;;;;;;5443379;26;20558;-74
2024/04/17 11:56:37;;;;;;;6.38;5.32;;;7.30;99.90;;;;;;5428187;26;20715;-75
2024/04/17 11:59:06;;;;;;;5.55;5.05;;;7.30;99.90;;;;;;5425853;26;20264;-75
2024/04/17 12:01:35;;;;;;;5.45;4.80;;;7.30;99.90;;;;;;5430105;26;20246;-74
2024/04/17 12:04:04;;;;;;;9.93;5.35;;;7.40;99.90;;;;;;5437756;26;20280;-75
2024/04/17 12:06:30;;;;;;;10.90;6.88;;;7.40;99.90;;;;;;5413439;26;20245;-76
2024/04/17 12:08:59;;;;;;;7.33;5.23;;;7.60;99.90;;;;;;5412287;26;20241;-75
2024/04/17 12:11:25;;;;;;;7.83;7.03;;;7.90;99.90;;;;;;5422997;26;20567;-75
2024/04/17 12:13:54;;;;;;;6.40;4.80;;;8.50;99.90;;;;;;5424519;26;20567;-76
2024/04/17 12:16:20;;;;;;;8.63;4.60;;;8.90;99.90;;;;;;5429717;26;20558;-75
2024/04/17 12:18:52;;;;;;;5.70;4.40;;;8.90;99.00;;;;;;5414904;26;21119;-75
2024/04/17 12:21:18;;;;;;;9.40;5.20;;;8.80;98.40;;;;;;5426338;26;20551;-76
2024/04/17 12:23:50;;;;;;;6.50;3.70;;;8.60;98.50;;;;;;5411348;26;20989;-76
2024/04/17 12:29:04;;;;;;;4.10;3.60;;;8.00;97.90;;;;;;5418826;26;20627;-76
2024/04/17 12:31:33;;;;;;;5.10;4.40;;;7.60;97.80;;;;;;5416292;26;21158;-76
2024/04/17 12:34:04;;;;;;;7.83;5.27;;;7.60;99.40;;;;;;5411824;26;20612;-77
2024/04/17 12:36:33;;;;;;;4.90;4.30;;;7.60;99.80;;;;;;5427169;26;21786;-77
2024/04/17 12:39:02;;;;;;;10.67;4.23;;;7.90;99.90;;;;;;5416477;26;20960;-77
2024/04/17 12:41:33;;;;;;;3.87;3.47;;;8.50;99.70;;;;;;5431374;26;21117;-77
2024/04/17 12:44:03;;;;;;;5.00;4.50;;;8.90;99.40;;;;;;5434489;26;20614;-77
2024/04/17 12:46:32;;;;;;;5.53;3.00;;;8.70;99.10;;;;;;5432073;26;20567;-78
2024/04/17 12:49:00;;;;;;;5.83;3.60;;;8.40;98.40;;;;;;5434957;26;20644;-75
2024/04/17 12:51:32;;;;;;;3.33;2.80;;;8.20;98.50;;;;;;5438758;26;20602;-76
2024/04/17 12:54:01;;;;;;;6.40;3.50;;;8.10;99.10;;;;;;5411484;26;20555;-75
2024/04/17 12:56:29;;;;;;;4.60;3.63;;;8.10;99.70;;;;;;5411573;26;20571;-75
2024/04/17 12:58:56;;;;;;;3.50;3.03;;;8.10;98.70;;;;;;5428458;26;20601;-77
2024/04/17 13:01:24;;;;;;;10.10;4.50;;;8.00;97.40;;;;;;5416674;26;20563;-77
2024/04/17 13:03:51;;;;;;;3.80;3.40;;;7.80;97.60;;;;;;5411748;26;20547;-76
2024/04/17 13:06:19;;;;;;;4.83;3.67;;;7.80;98.80;;;;;;5422597;26;20964;-76
2024/04/17 13:08:48;;;;;;;5.80;4.77;;;7.70;98.30;;;;;;5418217;26;20563;-76